Time;durP1;ratioP1;P1;durP2;ratioP2;P2;SDS_P1;SDS_P2;PMS_P1;PMS_P2;Temp;Humidity;BMP_temperature;BMP_pressure;BME280_temperature;BME280_humidity;BME280_pressure;Samples;Min_cycle;Max_cycle;Signal;HPM_P1;HPM_P2
2021/11/04 00:00:15;;;;;;;1.98;1.08;;;6.90;78.50;;;;;;5116315;28;20016;-78
2021/11/04 00:02:41;;;;;;;0.88;0.88;;;6.90;78.90;;;;;;5116389;28;20024;-77
2021/11/04 00:05:07;;;;;;;0.90;0.50;;;6.80;79.20;;;;;;5116204;28;20024;-77
2021/11/04 00:07:33;;;;;;;2.25;0.90;;;6.70;78.50;;;;;;5115970;28;20066;-77
2021/11/04 00:09:59;;;;;;;0.82;0.50;;;6.70;78.40;;;;;;5115981;28;20047;-77
2021/11/04 00:12:24;;;;;;;1.42;0.93;;;6.70;78.60;;;;;;5115834;28;20090;-78
2021/11/04 00:14:50;;;;;;;1.23;0.63;;;6.70;78.60;;;;;;5115943;28;20022;-78
2021/11/04 00:17:17;;;;;;;1.08;0.60;;;6.70;78.80;;;;;;5115860;28;20080;-78
2021/11/04 00:19:43;;;;;;;1.08;0.80;;;6.80;78.70;;;;;;5115927;28;20160;-77
2021/11/04 00:22:10;;;;;;;1.15;0.80;;;6.80;78.70;;;;;;5115855;28;20023;-77
2021/11/04 00:24:36;;;;;;;0.80;0.65;;;6.90;78.90;;;;;;5115668;28;20019;-77
2021/11/04 00:27:02;;;;;;;0.63;0.60;;;6.90;78.80;;;;;;5115619;28;20116;-77
2021/11/04 00:29:28;;;;;;;1.00;0.70;;;7.00;79.50;;;;;;5115719;28;20016;-77
2021/11/04 00:31:53;;;;;;;1.40;0.93;;;7.00;79.50;;;;;;5115627;28;20085;-78
2021/11/04 00:34:19;;;;;;;0.63;0.60;;;7.00;79.60;;;;;;5115554;28;20111;-77
2021/11/04 00:36:45;;;;;;;1.80;0.90;;;7.00;79.60;;;;;;5115592;28;20019;-77
2021/11/04 00:39:11;;;;;;;1.15;0.93;;;7.00;79.80;;;;;;5097306;28;20065;-77
2021/11/04 00:41:37;;;;;;;0.80;0.80;;;6.90;80.00;;;;;;5115490;28;20043;-78
2021/11/04 00:44:03;;;;;;;2.30;1.40;;;7.00;80.20;;;;;;5115493;28;20509;-78
2021/11/04 00:46:30;;;;;;;2.63;1.40;;;7.00;80.50;;;;;;5115312;28;20027;-77
2021/11/04 00:48:56;;;;;;;2.80;1.65;;;7.00;80.70;;;;;;5115276;28;20026;-78
2021/11/04 00:51:22;;;;;;;2.47;1.10;;;7.00;81.10;;;;;;5115001;28;20099;-77
2021/11/04 00:53:47;;;;;;;2.25;1.40;;;7.00;80.80;;;;;;5115342;28;20028;-77
2021/11/04 00:56:13;;;;;;;2.72;1.15;;;7.00;80.50;;;;;;5115506;28;20027;-77
2021/11/04 00:58:39;;;;;;;1.85;1.40;;;7.00;80.50;;;;;;5115228;28;20109;-78
2021/11/04 01:01:04;;;;;;;2.17;1.40;;;7.00;81.70;;;;;;5115223;28;20019;-78
2021/11/04 01:03:31;;;;;;;1.88;1.30;;;7.10;81.00;;;;;;5115508;28;20031;-78
2021/11/04 01:05:57;;;;;;;1.88;1.13;;;7.10;81.00;;;;;;5115276;28;20019;-77
2021/11/04 01:08:22;;;;;;;2.42;1.02;;;7.10;80.70;;;;;;5115769;28;20020;-76
2021/11/04 01:10:48;;;;;;;1.65;1.08;;;7.10;80.50;;;;;;5116147;28;20107;-76
2021/11/04 01:13:14;;;;;;;1.10;0.60;;;7.20;80.50;;;;;;5116031;28;20027;-76
2021/11/04 01:15:40;;;;;;;0.80;0.55;;;7.20;80.30;;;;;;5116211;28;20031;-76
2021/11/04 01:18:06;;;;;;;0.57;0.50;;;7.20;79.70;;;;;;5127025;28;20023;-76
2021/11/04 01:20:32;;;;;;;0.20;0.20;;;7.20;79.30;;;;;;5100499;28;20015;-76
2021/11/04 01:22:57;;;;;;;1.13;0.30;;;6.90;75.90;;;;;;5120670;28;20034;-76
2021/11/04 01:25:23;;;;;;;0.60;0.50;;;6.10;78.70;;;;;;5118700;28;20084;-76
2021/11/04 01:27:49;;;;;;;1.27;0.40;;;5.40;82.50;;;;;;5116345;28;20027;-76
2021/11/04 01:30:14;;;;;;;0.47;0.47;;;5.20;84.20;;;;;;5114665;28;20028;-77
2021/11/04 01:32:40;;;;;;;0.57;0.50;;;5.00;85.40;;;;;;5114455;28;20086;-78
2021/11/04 01:35:07;;;;;;;0.90;0.90;;;4.90;86.60;;;;;;5096360;28;20027;-78
2021/11/04 01:37:34;;;;;;;0.63;0.63;;;4.80;86.70;;;;;;5114847;28;20111;-78
2021/11/04 01:40:00;;;;;;;1.00;1.00;;;4.80;86.50;;;;;;5114339;28;20100;-77
2021/11/04 01:42:25;;;;;;;0.70;0.70;;;4.90;86.50;;;;;;5114531;28;20410;-77
2021/11/04 01:44:51;;;;;;;0.85;0.80;;;4.90;86.50;;;;;;5096155;28;20153;-77
2021/11/04 01:47:17;;;;;;;0.93;0.88;;;4.90;86.20;;;;;;5114366;28;20023;-77
2021/11/04 01:49:43;;;;;;;0.85;0.85;;;4.90;85.60;;;;;;5114458;28;20034;-78
2021/11/04 01:52:10;;;;;;;0.70;0.70;;;4.80;86.30;;;;;;5114335;28;20026;-77
2021/11/04 01:54:36;;;;;;;2.25;1.00;;;4.90;86.40;;;;;;5114294;28;20103;-77
2021/11/04 01:57:02;;;;;;;0.85;0.85;;;4.90;86.10;;;;;;5114434;28;20054;-77
2021/11/04 01:59:27;;;;;;;1.17;1.08;;;5.00;86.10;;;;;;5114350;28;20023;-77
2021/11/04 02:02:10;;;;;;;0.80;0.80;;;5.10;85.20;;;;;;5115267;28;20026;-77
2021/11/04 02:04:47;;;;;;;0.90;0.80;;;5.10;84.90;;;;;;5115376;28;20490;-77
2021/11/04 02:07:22;;;;;;;3.22;1.10;;;5.20;84.30;;;;;;5133202;27;20032;-78
2021/11/04 02:10:11;;;;;;;1.13;1.05;;;5.20;83.80;;;;;;5155905;27;20036;-78
2021/11/04 02:12:52;;;;;;;1.17;1.05;;;5.20;83.80;;;;;;5114085;28;20027;-77
2021/11/04 02:15:20;;;;;;;1.00;1.00;;;5.30;83.90;;;;;;5114054;28;20015;-77
2021/11/04 02:17:48;;;;;;;0.80;0.80;;;5.30;83.40;;;;;;5113879;28;20023;-77
2021/11/04 02:20:23;;;;;;;1.02;0.93;;;5.30;82.80;;;;;;5113716;28;20472;-77
2021/11/04 02:22:55;;;;;;;1.10;0.85;;;5.40;82.60;;;;;;5113889;28;20031;-77
2021/11/04 02:25:29;;;;;;;1.38;1.05;;;5.40;82.80;;;;;;5113742;28;20024;-77
2021/11/04 02:28:00;;;;;;;1.00;1.00;;;5.60;83.10;;;;;;5113519;28;20031;-77
2021/11/04 02:30:28;;;;;;;1.73;1.63;;;5.60;83.20;;;;;;5113603;28;20095;-78
2021/11/04 02:32:55;;;;;;;1.50;1.20;;;5.70;82.90;;;;;;5095051;28;20031;-77
2021/11/04 02:35:21;;;;;;;1.60;1.20;;;5.70;81.90;;;;;;5113419;28;20059;-77
2021/11/04 02:37:49;;;;;;;1.67;1.58;;;5.80;81.90;;;;;;5113448;28;20061;-77
2021/11/04 02:40:16;;;;;;;1.75;1.40;;;5.80;82.00;;;;;;5113227;28;20039;-77
2021/11/04 02:42:42;;;;;;;2.40;1.60;;;5.80;82.10;;;;;;5113469;28;20384;-77
2021/11/04 02:45:10;;;;;;;1.40;1.30;;;5.80;82.20;;;;;;5113288;28;20130;-77
2021/11/04 02:47:39;;;;;;;1.60;1.50;;;5.80;81.90;;;;;;5113363;28;20019;-77
2021/11/04 02:50:07;;;;;;;1.85;1.33;;;5.80;81.80;;;;;;5113343;28;20049;-77
2021/11/04 02:52:33;;;;;;;2.13;1.33;;;5.80;81.70;;;;;;5113292;28;20063;-77
2021/11/04 02:54:59;;;;;;;1.95;1.60;;;5.90;81.70;;;;;;5095193;28;20027;-77
2021/11/04 02:57:26;;;;;;;1.42;1.17;;;6.00;81.70;;;;;;5113009;28;20020;-79
2021/11/04 02:59:52;;;;;;;1.38;1.27;;;6.00;81.40;;;;;;5113186;28;20020;-78
2021/11/04 03:02:18;;;;;;;2.22;1.23;;;6.10;81.10;;;;;;5113140;28;20027;-78
2021/11/04 03:04:44;;;;;;;2.22;1.02;;;6.00;79.70;;;;;;5113183;28;20433;-78
2021/11/04 03:07:10;;;;;;;1.13;1.02;;;6.00;79.00;;;;;;5113079;28;20024;-78
2021/11/04 03:09:35;;;;;;;1.20;1.10;;;6.00;79.40;;;;;;5113162;28;20031;-77
2021/11/04 03:12:02;;;;;;;1.15;0.85;;;6.00;79.80;;;;;;5113122;28;20088;-77
2021/11/04 03:14:27;;;;;;;1.20;1.10;;;6.00;80.00;;;;;;5114838;28;20460;-77
2021/11/04 03:16:55;;;;;;;1.40;1.30;;;6.00;80.10;;;;;;5117451;28;20034;-77
2021/11/04 03:19:24;;;;;;;1.48;1.38;;;6.00;80.10;;;;;;5116969;28;20023;-77
2021/11/04 03:21:52;;;;;;;1.95;1.70;;;6.00;80.10;;;;;;5117028;28;20024;-77
2021/11/04 03:24:19;;;;;;;1.90;1.80;;;6.00;80.10;;;;;;5117192;28;20027;-77
2021/11/04 03:27:07;;;;;;;1.73;1.63;;;5.90;80.60;;;;;;5117157;28;20371;-77
2021/11/04 03:29:38;;;;;;;1.58;1.48;;;5.90;81.00;;;;;;5117163;28;20027;-77
2021/11/04 03:32:06;;;;;;;1.60;1.50;;;5.90;80.80;;;;;;5116936;28;20410;-77
2021/11/04 03:34:34;;;;;;;1.70;1.60;;;5.90;80.90;;;;;;5116738;28;20020;-77
2021/11/04 03:37:02;;;;;;;2.15;1.95;;;5.90;81.70;;;;;;5116676;28;20094;-77
2021/11/04 03:39:28;;;;;;;1.92;1.80;;;5.80;81.30;;;;;;5116748;28;20024;-77
2021/11/04 03:41:56;;;;;;;3.05;1.70;;;5.70;81.60;;;;;;5116642;28;20526;-77
2021/11/04 03:44:23;;;;;;;1.77;1.67;;;5.80;81.90;;;;;;5116569;28;20016;-77
2021/11/04 03:46:51;;;;;;;2.25;2.05;;;5.80;81.50;;;;;;5116640;28;20024;-77
2021/11/04 03:49:18;;;;;;;1.83;1.38;;;5.80;81.50;;;;;;5097892;28;20019;-76
2021/11/04 03:51:46;;;;;;;3.70;1.80;;;5.90;81.40;;;;;;5116399;28;20027;-77
2021/11/04 03:54:12;;;;;;;1.70;1.60;;;5.90;81.30;;;;;;5116405;28;20024;-77
2021/11/04 03:56:39;;;;;;;1.80;1.70;;;5.80;81.20;;;;;;5116287;28;20100;-78
2021/11/04 03:59:05;;;;;;;1.83;1.20;;;5.80;80.80;;;;;;5116261;28;20031;-77
2021/11/04 04:01:34;;;;;;;1.58;1.48;;;5.90;81.20;;;;;;5116482;28;20083;-77
2021/11/04 04:04:02;;;;;;;1.83;1.73;;;5.90;81.50;;;;;;5116314;28;20051;-77
2021/11/04 04:06:28;;;;;;;2.35;1.60;;;5.90;81.50;;;;;;5097628;28;20023;-77
2021/11/04 04:08:54;;;;;;;2.33;2.05;;;5.90;81.50;;;;;;5116195;28;20491;-77
2021/11/04 04:11:22;;;;;;;3.05;2.20;;;5.90;81.60;;;;;;5116150;28;20376;-77
2021/11/04 04:13:48;;;;;;;2.70;2.50;;;5.90;81.80;;;;;;5116115;28;20036;-77
2021/11/04 04:16:13;;;;;;;2.42;2.22;;;5.80;81.80;;;;;;5115669;28;20035;-77
2021/11/04 04:18:39;;;;;;;2.05;1.85;;;5.70;82.10;;;;;;5116202;28;20065;-77
2021/11/04 04:21:04;;;;;;;2.90;2.60;;;5.80;81.90;;;;;;5115822;28;20036;-77
2021/11/04 04:23:30;;;;;;;2.83;2.42;;;5.80;81.70;;;;;;5115859;28;20031;-77
2021/11/04 04:25:55;;;;;;;2.45;2.20;;;5.80;81.60;;;;;;5115105;28;20030;-76
2021/11/04 04:28:21;;;;;;;3.03;2.72;;;5.90;81.80;;;;;;5115659;28;20031;-77
2021/11/04 04:30:47;;;;;;;2.35;2.15;;;5.90;81.90;;;;;;5115430;28;20024;-76
2021/11/04 04:33:12;;;;;;;2.45;1.90;;;5.90;81.70;;;;;;5115450;28;20031;-76
2021/11/04 04:35:38;;;;;;;3.35;2.67;;;6.00;81.50;;;;;;5115610;28;20467;-76
2021/11/04 04:38:03;;;;;;;3.17;2.70;;;6.00;81.40;;;;;;5115696;28;20072;-75
2021/11/04 04:40:29;;;;;;;2.25;2.05;;;6.00;81.40;;;;;;5115419;28;20047;-76
2021/11/04 04:42:55;;;;;;;2.60;1.42;;;6.00;81.60;;;;;;5115337;28;20074;-76
2021/11/04 04:45:20;;;;;;;2.45;2.20;;;6.00;80.10;;;;;;5115147;28;20424;-75
2021/11/04 04:47:46;;;;;;;1.73;1.63;;;5.80;80.50;;;;;;5115479;28;20026;-76
2021/11/04 04:50:12;;;;;;;10.07;1.35;;;5.70;80.80;;;;;;5115453;28;20020;-78
2021/11/04 04:52:39;;;;;;;0.98;0.98;;;5.70;79.60;;;;;;5116072;28;20031;-76
2021/11/04 04:55:05;;;;;;;2.25;0.90;;;5.60;79.50;;;;;;5117917;28;20012;-77
2021/11/04 04:57:30;;;;;;;0.65;0.65;;;5.40;79.70;;;;;;5117467;28;20080;-76
2021/11/04 04:59:57;;;;;;;1.95;0.95;;;5.30;80.60;;;;;;5115460;28;20438;-75
2021/11/04 05:02:27;;;;;;;1.23;1.13;;;5.30;80.80;;;;;;5115671;28;20020;-76
2021/11/04 05:04:53;;;;;;;1.83;1.48;;;5.30;80.70;;;;;;5114658;28;20515;-76
2021/11/04 05:07:20;;;;;;;0.90;0.90;;;5.30;79.90;;;;;;5114755;28;20023;-75
2021/11/04 05:09:46;;;;;;;0.95;0.95;;;5.40;80.00;;;;;;5114709;28;20024;-76
2021/11/04 05:12:12;;;;;;;0.80;0.80;;;5.40;79.70;;;;;;5114559;28;20042;-76
2021/11/04 05:14:37;;;;;;;1.10;1.00;;;5.30;79.50;;;;;;5114902;28;20023;-77
2021/11/04 05:17:04;;;;;;;0.70;0.70;;;5.30;80.00;;;;;;5114804;28;20050;-77
2021/11/04 05:19:30;;;;;;;0.82;0.82;;;5.40;80.10;;;;;;5114896;28;20015;-77
2021/11/04 05:21:55;;;;;;;0.70;0.70;;;5.40;79.50;;;;;;5114704;28;20019;-78
2021/11/04 05:24:21;;;;;;;0.80;0.70;;;5.40;79.60;;;;;;5114846;28;20050;-78
2021/11/04 05:26:48;;;;;;;0.77;0.77;;;5.40;79.50;;;;;;5114570;28;20035;-78
2021/11/04 05:29:14;;;;;;;0.95;0.95;;;5.40;79.60;;;;;;5114497;28;20029;-79
2021/11/04 05:31:40;;;;;;;1.63;1.33;;;5.20;79.90;;;;;;5114403;28;20078;-78
2021/11/04 05:34:06;;;;;;;1.10;1.00;;;5.20;81.20;;;;;;5114366;28;20059;-79
2021/11/04 05:36:32;;;;;;;1.30;1.20;;;5.20;81.10;;;;;;5114500;28;20076;-78
2021/11/04 05:38:58;;;;;;;1.27;1.13;;;5.10;81.00;;;;;;5113408;28;20090;-79
2021/11/04 05:41:24;;;;;;;1.27;1.10;;;5.20;80.60;;;;;;5113718;28;20061;-78
2021/11/04 05:43:50;;;;;;;1.70;1.42;;;5.10;80.70;;;;;;5114191;28;20533;-77
2021/11/04 05:46:15;;;;;;;1.15;1.05;;;5.20;80.50;;;;;;5113934;28;20024;-78
2021/11/04 05:48:41;;;;;;;0.80;0.80;;;5.10;80.50;;;;;;5114169;28;20027;-78
2021/11/04 05:51:06;;;;;;;0.88;0.88;;;5.00;80.80;;;;;;5114044;28;20023;-79
2021/11/04 05:53:32;;;;;;;0.55;0.55;;;5.00;80.50;;;;;;5095689;28;20115;-77
2021/11/04 05:55:58;;;;;;;1.23;0.73;;;5.00;80.70;;;;;;5113641;28;20414;-80
2021/11/04 05:58:23;;;;;;;0.82;0.82;;;5.00;81.10;;;;;;5113769;28;20074;-79
2021/11/04 06:00:49;;;;;;;1.25;1.10;;;5.00;81.70;;;;;;5114099;28;20020;-77
2021/11/04 06:03:14;;;;;;;1.20;1.00;;;5.00;81.20;;;;;;5113986;28;20114;-77
2021/11/04 06:05:41;;;;;;;0.70;0.70;;;5.00;81.40;;;;;;5113901;28;20345;-78
2021/11/04 06:08:07;;;;;;;0.70;0.70;;;5.00;81.00;;;;;;5113623;28;20027;-78
2021/11/04 06:10:34;;;;;;;1.45;1.17;;;5.10;81.20;;;;;;5113735;28;20028;-77
2021/11/04 06:12:59;;;;;;;1.35;1.05;;;5.00;81.10;;;;;;5113741;28;20036;-78
2021/11/04 06:15:25;;;;;;;0.82;0.57;;;5.00;81.10;;;;;;5113398;28;20498;-77
2021/11/04 06:17:51;;;;;;;2.25;0.80;;;5.00;81.10;;;;;;5095319;28;20467;-77
2021/11/04 06:20:17;;;;;;;2.90;0.90;;;5.00;81.10;;;;;;5113318;28;20419;-77
2021/11/04 06:22:42;;;;;;;1.45;1.00;;;5.00;81.40;;;;;;5113505;28;20023;-79
2021/11/04 06:25:09;;;;;;;1.33;0.88;;;5.00;81.40;;;;;;5113528;28;20035;-78
2021/11/04 06:27:36;;;;;;;1.17;0.85;;;5.00;81.20;;;;;;5113072;28;20084;-78
2021/11/04 06:30:04;;;;;;;1.27;1.00;;;5.10;81.40;;;;;;5095148;28;20023;-78
2021/11/04 06:32:30;;;;;;;1.50;0.80;;;5.10;80.90;;;;;;5113150;28;20089;-78
2021/11/04 06:34:55;;;;;;;0.85;0.55;;;5.10;81.00;;;;;;5113142;28;20020;-78
2021/11/04 06:37:21;;;;;;;2.83;0.98;;;5.10;80.90;;;;;;5113303;28;20027;-78
2021/11/04 06:39:47;;;;;;;0.60;0.60;;;5.10;81.40;;;;;;5113390;28;20023;-78
2021/11/04 06:42:12;;;;;;;0.50;0.50;;;5.10;80.80;;;;;;5112881;28;20093;-78
2021/11/04 06:44:38;;;;;;;0.70;0.70;;;5.20;80.30;;;;;;5113196;28;20379;-77
2021/11/04 06:47:07;;;;;;;0.70;0.70;;;5.10;80.30;;;;;;5113228;28;20090;-77
2021/11/04 06:49:36;;;;;;;2.70;1.70;;;5.10;80.40;;;;;;5114486;28;20020;-77
2021/11/04 06:52:03;;;;;;;0.60;0.60;;;5.10;81.00;;;;;;5117161;28;20034;-77
2021/11/04 06:54:30;;;;;;;0.93;0.63;;;5.10;80.80;;;;;;5116829;28;20027;-77
2021/11/04 06:56:58;;;;;;;0.52;0.52;;;5.10;80.70;;;;;;5117258;28;20039;-77
2021/11/04 06:59:26;;;;;;;1.33;0.70;;;5.10;80.90;;;;;;5117131;28;20027;-77
2021/11/04 07:01:57;;;;;;;0.70;0.70;;;5.10;81.00;;;;;;5117279;28;20084;-78
2021/11/04 07:04:33;;;;;;;1.42;0.90;;;5.10;81.80;;;;;;5117079;28;20015;-78
2021/11/04 07:07:10;;;;;;;1.10;0.80;;;5.10;81.50;;;;;;5117429;28;20417;-77
2021/11/04 07:09:38;;;;;;;1.42;0.90;;;5.10;81.70;;;;;;5116879;28;20039;-76
2021/11/04 07:12:07;;;;;;;0.95;0.77;;;5.10;81.80;;;;;;5116979;28;20035;-76
2021/11/04 07:14:36;;;;;;;0.82;0.82;;;5.10;81.60;;;;;;5116942;28;20019;-77
2021/11/04 07:17:03;;;;;;;1.88;1.45;;;5.10;82.00;;;;;;5116746;28;20437;-76
2021/11/04 07:19:29;;;;;;;0.90;0.90;;;5.10;82.10;;;;;;5116969;28;20027;-78
2021/11/04 07:22:05;;;;;;;1.38;1.10;;;5.10;82.30;;;;;;5117153;28;20027;-79
2021/11/04 07:24:37;;;;;;;1.85;0.93;;;5.10;82.00;;;;;;5116762;28;20023;-79
2021/11/04 07:27:32;;;;;;;1.30;0.68;;;5.00;82.10;;;;;;5116558;28;20106;-77
2021/11/04 07:30:03;;;;;;;1.60;0.82;;;5.10;81.60;;;;;;5108720;28;20105;-77
2021/11/04 07:32:30;;;;;;;0.80;0.70;;;5.10;81.80;;;;;;5116711;28;20080;-78
2021/11/04 07:34:57;;;;;;;0.70;0.68;;;5.10;82.00;;;;;;5116718;28;20028;-76
2021/11/04 07:37:29;;;;;;;1.20;0.80;;;5.10;82.20;;;;;;5116489;28;20455;-78
2021/11/04 07:39:56;;;;;;;1.40;1.30;;;5.00;82.40;;;;;;5116445;28;20020;-78
2021/11/04 07:42:21;;;;;;;1.00;0.90;;;5.00;82.70;;;;;;5098140;28;20043;-78
2021/11/04 07:44:47;;;;;;;1.10;0.75;;;5.10;83.10;;;;;;5116127;28;20032;-78
2021/11/04 07:47:13;;;;;;;1.00;0.90;;;5.10;83.20;;;;;;5116161;28;20028;-77
2021/11/04 07:49:38;;;;;;;1.05;0.95;;;5.10;82.80;;;;;;5116125;28;20494;-77
2021/11/04 07:52:06;;;;;;;1.67;0.82;;;5.10;83.00;;;;;;5116655;28;20041;-77
2021/11/04 07:54:32;;;;;;;2.17;1.33;;;5.10;83.00;;;;;;5119443;28;20058;-78
2021/11/04 07:56:58;;;;;;;1.67;0.93;;;5.10;82.50;;;;;;5122234;28;20099;-77
2021/11/04 07:59:28;;;;;;;1.23;1.13;;;5.10;82.70;;;;;;5121322;28;20055;-79
2021/11/04 08:01:56;;;;;;;1.10;1.00;;;5.10;83.10;;;;;;5110943;28;20023;-77
2021/11/04 08:04:21;;;;;;;0.80;0.80;;;5.00;82.90;;;;;;5116882;28;20016;-76
2021/11/04 08:06:47;;;;;;;1.88;1.10;;;5.00;82.80;;;;;;5116479;28;20114;-78
2021/11/04 08:09:12;;;;;;;2.10;1.00;;;5.00;84.30;;;;;;5116142;28;20475;-77
2021/11/04 08:11:38;;;;;;;1.13;1.00;;;5.00;83.70;;;;;;5115618;28;20031;-77
2021/11/04 08:14:04;;;;;;;1.13;1.00;;;5.00;83.10;;;;;;5116173;28;20024;-77
2021/11/04 08:16:29;;;;;;;3.30;1.08;;;5.00;83.20;;;;;;5116162;28;20016;-76
2021/11/04 08:18:55;;;;;;;2.92;1.15;;;4.90;83.50;;;;;;5097544;28;20479;-77
2021/11/04 08:21:21;;;;;;;2.55;1.38;;;4.90;83.70;;;;;;5115891;28;20023;-76
2021/11/04 08:23:46;;;;;;;2.42;0.90;;;4.90;83.60;;;;;;5115804;28;20027;-77
2021/11/04 08:26:14;;;;;;;1.50;0.98;;;4.90;83.50;;;;;;5115748;28;20092;-77
2021/11/04 08:28:40;;;;;;;1.25;1.02;;;5.00;83.60;;;;;;5097460;28;20431;-77
2021/11/04 08:31:06;;;;;;;1.05;0.77;;;5.00;83.20;;;;;;5115794;28;20028;-77
2021/11/04 08:33:32;;;;;;;3.22;0.73;;;5.00;83.70;;;;;;5115720;28;20071;-77
2021/11/04 08:35:57;;;;;;;1.95;0.73;;;5.10;82.70;;;;;;5115557;28;20103;-77
2021/11/04 08:38:23;;;;;;;4.82;0.80;;;5.10;82.40;;;;;;5115558;28;20379;-77
2021/11/04 08:40:49;;;;;;;0.98;0.80;;;5.20;82.70;;;;;;5115421;28;20110;-78
2021/11/04 08:43:14;;;;;;;0.75;0.75;;;5.20;82.60;;;;;;5115469;28;20506;-77
2021/11/04 08:45:40;;;;;;;2.85;0.93;;;5.30;83.40;;;;;;5097557;28;20028;-80
2021/11/04 08:48:06;;;;;;;3.33;1.33;;;5.40;82.40;;;;;;5097432;28;20028;-77
2021/11/04 08:50:32;;;;;;;1.15;0.88;;;5.50;81.70;;;;;;5115632;28;20020;-78
2021/11/04 08:52:57;;;;;;;4.72;1.10;;;5.70;82.10;;;;;;5115312;28;20042;-83
2021/11/04 08:55:23;;;;;;;2.92;0.90;;;5.70;81.30;;;;;;5098074;28;20407;-86
2021/11/04 08:57:51;;;;;;;1.40;0.70;;;5.80;81.20;;;;;;5098078;28;20384;-86
2021/11/04 09:00:17;;;;;;;0.73;0.73;;;5.80;79.80;;;;;;5116377;28;20030;-83
2021/11/04 09:02:43;;;;;;;0.82;0.65;;;5.80;80.80;;;;;;5096950;28;20019;-80
2021/11/04 09:05:09;;;;;;;0.55;0.40;;;5.90;80.70;;;;;;5096815;28;20380;-80
2021/11/04 09:07:39;;;;;;;1.08;0.60;;;5.80;78.70;;;;;;5115349;28;20484;-78
2021/11/04 09:10:07;;;;;;;1.42;0.80;;;5.70;80.20;;;;;;5115080;28;20491;-79
2021/11/04 09:12:34;;;;;;;0.63;0.55;;;5.70;80.30;;;;;;5114447;28;20388;-79
2021/11/04 09:15:02;;;;;;;1.02;0.80;;;5.70;80.30;;;;;;5114652;28;20020;-78
2021/11/04 09:17:28;;;;;;;0.63;0.57;;;5.50;80.10;;;;;;5114415;28;20024;-77
2021/11/04 09:19:53;;;;;;;0.40;0.40;;;5.40;80.50;;;;;;5114553;28;20030;-77
2021/11/04 09:22:20;;;;;;;0.47;0.47;;;5.30;80.90;;;;;;5114102;28;20050;-77
2021/11/04 09:24:46;;;;;;;0.68;0.60;;;5.30;81.60;;;;;;5114550;28;20024;-76
2021/11/04 09:27:12;;;;;;;1.52;0.60;;;5.30;81.80;;;;;;5114522;28;20499;-77
2021/11/04 09:29:39;;;;;;;0.88;0.70;;;5.20;82.40;;;;;;5114436;28;20356;-77
2021/11/04 09:32:06;;;;;;;0.80;0.60;;;5.20;83.30;;;;;;5113850;28;20027;-75
2021/11/04 09:34:33;;;;;;;0.80;0.80;;;5.20;83.70;;;;;;5113628;28;20104;-76
2021/11/04 09:36:59;;;;;;;1.73;1.17;;;5.30;83.50;;;;;;5114142;28;20020;-77
2021/11/04 09:39:25;;;;;;;0.88;0.88;;;5.20;84.00;;;;;;5114100;28;20028;-75
2021/11/04 09:41:51;;;;;;;4.38;1.88;;;5.20;84.50;;;;;;5113415;28;20096;-76
2021/11/04 09:44:18;;;;;;;1.00;0.80;;;5.20;85.50;;;;;;5113924;28;20386;-76
2021/11/04 09:46:44;;;;;;;0.85;0.85;;;5.30;85.40;;;;;;5114017;28;20020;-76
2021/11/04 09:49:10;;;;;;;1.80;1.00;;;5.40;84.20;;;;;;5095667;28;20081;-75
2021/11/04 09:51:36;;;;;;;1.17;1.00;;;5.40;83.40;;;;;;5113900;28;20030;-76
2021/11/04 09:54:02;;;;;;;1.92;0.63;;;5.40;83.30;;;;;;5114197;28;20031;-77
2021/11/04 09:56:29;;;;;;;0.90;0.80;;;5.50;82.30;;;;;;5095175;28;20177;-76
2021/11/04 09:58:55;;;;;;;1.27;0.77;;;5.50;82.10;;;;;;5113260;28;20051;-76
2021/11/04 10:01:26;;;;;;;2.08;1.13;;;5.50;82.60;;;;;;5113763;28;20070;-77
2021/11/04 10:03:53;;;;;;;1.08;0.80;;;5.50;82.10;;;;;;5095367;28;20157;-76
2021/11/04 10:06:30;;;;;;;2.03;1.48;;;5.50;82.30;;;;;;5113621;28;20023;-76
2021/11/04 10:09:00;;;;;;;2.65;1.00;;;5.60;83.10;;;;;;5129821;27;20167;-76
2021/11/04 10:11:33;;;;;;;1.42;1.20;;;5.70;81.90;;;;;;5095237;28;20414;-76
2021/11/04 10:14:02;;;;;;;0.68;0.68;;;5.60;81.50;;;;;;5113667;28;20042;-76
2021/11/04 10:16:30;;;;;;;3.35;0.80;;;5.60;81.00;;;;;;5094601;28;20020;-76
2021/11/04 10:18:56;;;;;;;1.10;1.00;;;5.60;80.20;;;;;;5095409;28;20028;-77
2021/11/04 10:21:27;;;;;;;1.70;1.20;;;5.40;80.50;;;;;;5113476;28;20372;-75
2021/11/04 10:23:54;;;;;;;1.98;1.40;;;5.30;81.80;;;;;;5104188;28;20372;-76
2021/11/04 10:26:23;;;;;;;4.15;1.50;;;5.30;82.80;;;;;;5095278;28;20027;-77
2021/11/04 10:28:51;;;;;;;1.92;1.50;;;5.40;82.80;;;;;;5095055;28;20062;-75
2021/11/04 10:31:20;;;;;;;2.22;1.60;;;5.50;82.80;;;;;;5094863;28;20024;-77
2021/11/04 10:33:50;;;;;;;1.38;1.25;;;5.50;82.70;;;;;;5077824;28;20040;-77
2021/11/04 10:36:21;;;;;;;1.90;1.63;;;5.50;81.50;;;;;;5094972;28;20020;-77
2021/11/04 10:38:56;;;;;;;1.50;1.38;;;5.60;82.10;;;;;;5095188;28;20027;-77
2021/11/04 10:41:22;;;;;;;1.58;1.23;;;5.50;82.70;;;;;;5094513;28;20083;-77
2021/11/04 10:43:49;;;;;;;2.20;2.00;;;5.60;81.50;;;;;;5094737;28;20050;-77
2021/11/04 10:46:16;;;;;;;2.65;1.67;;;5.60;82.40;;;;;;5094153;28;20026;-77
2021/11/04 10:48:46;;;;;;;1.95;1.75;;;5.60;82.80;;;;;;5095011;28;20019;-77
2021/11/04 10:51:20;;;;;;;1.98;1.38;;;5.70;82.00;;;;;;5094890;28;20122;-76
2021/11/04 10:54:08;;;;;;;2.47;1.83;;;5.70;81.70;;;;;;5112818;28;20062;-77
2021/11/04 10:56:36;;;;;;;2.08;1.88;;;5.80;81.40;;;;;;5078723;28;20027;-77
2021/11/04 10:59:10;;;;;;;2.00;1.80;;;5.80;81.10;;;;;;5094610;28;20479;-78
2021/11/04 11:01:40;;;;;;;2.90;2.08;;;5.90;80.90;;;;;;5095051;28;20073;-77
2021/11/04 11:04:09;;;;;;;2.58;1.77;;;5.80;81.20;;;;;;5113161;28;20027;-78
2021/11/04 11:07:01;;;;;;;2.53;2.30;;;5.90;81.10;;;;;;5094577;28;20076;-77
2021/11/04 11:09:30;;;;;;;3.00;2.17;;;5.90;81.00;;;;;;5091240;28;20500;-76
2021/11/04 11:12:03;;;;;;;3.45;2.60;;;6.00;80.30;;;;;;5104843;28;20472;-76
2021/11/04 11:14:31;;;;;;;5.53;3.00;;;5.90;80.80;;;;;;5128766;28;20478;-77
2021/11/04 11:17:00;;;;;;;3.30;3.00;;;5.90;81.20;;;;;;5112983;28;20050;-76
2021/11/04 11:19:29;;;;;;;3.00;2.58;;;5.80;81.50;;;;;;5086345;28;20032;-76
2021/11/04 11:21:57;;;;;;;4.20;3.55;;;5.80;81.50;;;;;;5072768;28;20496;-76
2021/11/04 11:24:32;;;;;;;4.05;2.85;;;5.80;81.10;;;;;;5073747;28;20180;-75
2021/11/04 11:27:01;;;;;;;3.65;2.92;;;5.90;80.60;;;;;;5090411;28;20529;-75
2021/11/04 11:29:51;;;;;;;3.42;2.83;;;6.00;80.00;;;;;;5092326;28;20055;-75
2021/11/04 11:32:19;;;;;;;5.95;3.88;;;6.00;79.70;;;;;;5070859;28;20391;-76
2021/11/04 11:34:46;;;;;;;5.70;4.00;;;6.10;79.80;;;;;;5092682;28;20603;-77
2021/11/04 11:37:20;;;;;;;6.45;4.07;;;6.10;80.00;;;;;;5096148;28;20020;-77
2021/11/04 11:39:49;;;;;;;4.75;3.83;;;6.20;79.10;;;;;;5078295;28;20085;-76
2021/11/04 11:42:26;;;;;;;4.55;3.58;;;6.20;78.30;;;;;;5057855;28;20136;-77
2021/11/04 11:44:55;;;;;;;4.90;4.18;;;6.30;77.90;;;;;;5055002;28;20131;-77
2021/11/04 11:47:42;;;;;;;5.90;4.35;;;6.30;78.30;;;;;;5057558;28;20078;-77
2021/11/04 11:50:25;;;;;;;5.00;4.30;;;6.40;77.90;;;;;;5051249;28;20103;-77
2021/11/04 11:52:57;;;;;;;4.68;3.80;;;6.40;77.50;;;;;;5075604;28;20067;-77
2021/11/04 11:55:40;;;;;;;5.78;4.18;;;6.50;77.00;;;;;;5075469;28;20020;-76
2021/11/04 11:58:23;;;;;;;5.63;4.18;;;6.50;77.10;;;;;;5075469;28;20025;-77
2021/11/04 12:01:07;;;;;;;4.35;3.75;;;6.60;77.40;;;;;;5076245;28;20090;-77
2021/11/04 12:03:36;;;;;;;4.53;3.67;;;6.60;76.70;;;;;;5075290;28;20155;-77
2021/11/04 12:06:02;;;;;;;3.55;2.92;;;6.70;75.60;;;;;;5091281;28;20373;-76
2021/11/04 12:08:32;;;;;;;3.10;2.78;;;6.70;75.40;;;;;;5075026;28;20402;-77
2021/11/04 12:10:59;;;;;;;6.22;3.80;;;6.50;76.70;;;;;;5057194;28;20519;-76
2021/11/04 12:13:39;;;;;;;5.20;3.25;;;6.50;76.50;;;;;;5056852;28;20038;-76
2021/11/04 12:16:23;;;;;;;6.18;4.45;;;6.70;75.30;;;;;;5057264;28;20032;-77
2021/11/04 12:18:48;;;;;;;6.22;4.53;;;6.80;75.50;;;;;;5057007;28;20021;-77
2021/11/04 12:21:24;;;;;;;9.45;6.15;;;6.80;75.60;;;;;;5057359;28;20412;-77
2021/11/04 12:23:50;;;;;;;5.30;4.07;;;6.90;76.30;;;;;;5075240;28;20017;-76
2021/11/04 12:26:31;;;;;;;5.25;4.15;;;6.70;76.40;;;;;;5057013;28;20031;-77
2021/11/04 12:28:56;;;;;;;4.55;3.80;;;6.50;77.70;;;;;;5049017;28;20024;-77
2021/11/04 12:31:24;;;;;;;5.30;3.78;;;6.50;78.20;;;;;;5057114;28;20024;-77
2021/11/04 12:33:57;;;;;;;6.93;4.20;;;6.40;78.00;;;;;;5057277;28;20029;-77
2021/11/04 12:36:29;;;;;;;7.28;5.45;;;6.30;78.90;;;;;;5040204;28;20587;-77
2021/11/04 12:38:55;;;;;;;4.90;3.22;;;6.20;80.80;;;;;;5057172;28;20440;-77
2021/11/04 12:41:22;;;;;;;3.72;3.28;;;6.20;81.40;;;;;;5069298;28;20044;-77
2021/11/04 12:43:49;;;;;;;3.70;2.88;;;6.10;81.60;;;;;;5076720;28;20082;-77
2021/11/04 12:46:25;;;;;;;4.80;3.28;;;6.10;82.20;;;;;;5076639;28;20434;-77
2021/11/04 12:48:56;;;;;;;5.93;3.10;;;6.20;81.30;;;;;;5094920;28;20020;-77
2021/11/04 12:51:53;;;;;;;4.90;3.35;;;6.20;82.00;;;;;;5076800;28;20054;-76
2021/11/04 12:54:21;;;;;;;7.10;3.70;;;6.30;81.70;;;;;;5094676;28;20035;-76
2021/11/04 12:56:59;;;;;;;5.22;3.90;;;6.50;81.90;;;;;;5076558;28;20035;-75
2021/11/04 12:59:38;;;;;;;4.30;3.58;;;6.60;81.30;;;;;;5076294;28;20081;-75
2021/11/04 13:02:07;;;;;;;3.72;3.28;;;6.60;80.40;;;;;;5076553;28;20103;-77